Time;durP1;ratioP1;P1;durP2;ratioP2;P2;SDS_P1;SDS_P2;PMS_P1;PMS_P2;Temp;Humidity;BMP_temperature;BMP_pressure;BME280_temperature;BME280_humidity;BME280_pressure;Samples;Min_cycle;Max_cycle;Signal;HPM_P1;HPM_P2
2020/12/17 00:00:47;;;;;;;17.30;9.73;;;6.20;99.90;;;;;;6259150;28;20064;-75
2020/12/17 00:03:48;;;;;;;23.65;9.85;;;6.20;99.90;;;;;;6259484;28;20045;-75
2020/12/17 00:06:51;;;;;;;10.95;8.63;;;6.20;99.90;;;;;;6256433;28;20590;-75
2020/12/17 00:09:52;;;;;;;13.90;9.38;;;6.20;99.90;;;;;;6258551;28;20053;-75
2020/12/17 00:12:53;;;;;;;15.43;9.13;;;6.20;99.90;;;;;;6260243;28;20047;-75
2020/12/17 00:15:55;;;;;;;17.40;9.57;;;6.20;99.90;;;;;;6256237;28;20060;-75
2020/12/17 00:18:56;;;;;;;12.88;9.95;;;6.20;99.90;;;;;;6258706;28;20044;-75
2020/12/17 00:21:58;;;;;;;12.35;8.55;;;6.30;99.90;;;;;;6258838;28;20052;-75
2020/12/17 00:24:59;;;;;;;11.75;9.63;;;6.30;99.90;;;;;;6257448;28;20060;-75
2020/12/17 00:28:01;;;;;;;14.02;9.25;;;6.20;99.90;;;;;;6257361;28;20503;-76
2020/12/17 00:31:02;;;;;;;11.98;9.00;;;6.20;99.90;;;;;;6257403;28;20045;-74
2020/12/17 00:34:03;;;;;;;12.50;9.13;;;6.10;99.90;;;;;;6255532;28;20124;-75
2020/12/17 00:37:06;;;;;;;12.63;8.48;;;6.00;99.90;;;;;;6256323;28;20096;-75
2020/12/17 00:40:10;;;;;;;10.65;8.75;;;5.90;99.90;;;;;;6256781;28;20045;-75
2020/12/17 00:43:11;;;;;;;11.38;8.52;;;5.90;99.90;;;;;;6256128;28;20143;-75
2020/12/17 00:46:14;;;;;;;9.13;7.18;;;5.90;99.90;;;;;;6254776;28;20172;-74
2020/12/17 00:49:15;;;;;;;8.95;7.38;;;5.90;99.90;;;;;;6256205;28;20063;-75
2020/12/17 00:52:21;;;;;;;13.82;7.63;;;5.80;99.90;;;;;;6258050;28;20052;-75
2020/12/17 00:55:23;;;;;;;11.43;6.75;;;5.80;99.90;;;;;;6257274;28;20530;-75
2020/12/17 00:58:24;;;;;;;9.70;7.95;;;5.70;99.90;;;;;;6256734;28;20049;-75
2020/12/17 01:01:26;;;;;;;11.57;9.18;;;5.70;99.90;;;;;;6257435;28;20119;-75
2020/12/17 01:04:27;;;;;;;9.88;7.78;;;5.60;99.90;;;;;;6256051;28;20056;-75
2020/12/17 01:07:29;;;;;;;12.00;7.75;;;5.50;99.90;;;;;;6255258;28;20132;-75
2020/12/17 01:10:31;;;;;;;41.35;10.43;;;5.50;99.90;;;;;;6257657;28;20053;-75
2020/12/17 01:13:32;;;;;;;14.60;7.78;;;5.40;99.90;;;;;;6255020;28;20048;-75
2020/12/17 01:16:33;;;;;;;18.15;9.73;;;5.30;99.90;;;;;;6256868;28;20047;-75
2020/12/17 01:19:35;;;;;;;7.82;6.75;;;5.20;99.90;;;;;;6257632;28;20044;-75
2020/12/17 01:22:37;;;;;;;11.20;7.25;;;5.20;99.90;;;;;;6255931;28;20041;-75
2020/12/17 01:25:38;;;;;;;9.57;7.50;;;5.10;99.90;;;;;;6257588;28;20128;-75
2020/12/17 01:28:41;;;;;;;9.95;7.82;;;5.00;99.90;;;;;;6257147;28;20179;-74
2020/12/17 01:31:42;;;;;;;8.13;7.18;;;4.90;99.90;;;;;;6256723;28;20048;-74
2020/12/17 01:34:44;;;;;;;8.63;7.72;;;4.80;99.90;;;;;;6256274;28;20047;-75
2020/12/17 01:37:46;;;;;;;10.40;7.78;;;4.70;99.90;;;;;;6254744;28;20056;-75
2020/12/17 01:40:47;;;;;;;10.15;7.00;;;4.70;99.90;;;;;;6255748;28;20509;-75
2020/12/17 01:43:48;;;;;;;12.25;7.55;;;4.60;99.90;;;;;;6254748;28;20045;-75
2020/12/17 01:46:50;;;;;;;14.10;6.88;;;4.60;99.90;;;;;;6256245;28;20462;-74
2020/12/17 01:49:51;;;;;;;8.05;6.45;;;4.50;99.90;;;;;;6257743;28;20065;-75
2020/12/17 01:52:54;;;;;;;8.88;6.25;;;4.40;99.90;;;;;;6255700;28;20055;-75
2020/12/17 01:56:01;;;;;;;8.38;6.10;;;4.30;99.90;;;;;;6254664;28;20057;-75
2020/12/17 01:59:07;;;;;;;11.73;7.88;;;4.30;99.90;;;;;;6257214;28;20439;-75
2020/12/17 02:02:10;;;;;;;9.77;6.45;;;4.20;99.90;;;;;;6255626;28;20076;-75
2020/12/17 02:05:11;;;;;;;8.93;7.10;;;4.10;99.90;;;;;;6257027;28;20075;-75
2020/12/17 02:08:16;;;;;;;8.88;6.03;;;4.10;99.90;;;;;;6255028;28;20051;-75
2020/12/17 02:11:18;;;;;;;8.18;6.78;;;4.00;99.90;;;;;;6257068;28;20056;-74
2020/12/17 02:14:19;;;;;;;8.35;7.18;;;3.90;99.90;;;;;;6255644;28;20057;-74
2020/12/17 02:17:21;;;;;;;7.57;6.15;;;3.80;99.90;;;;;;6256107;28;20049;-74
2020/12/17 02:20:22;;;;;;;7.82;6.40;;;3.80;99.90;;;;;;6255727;28;20046;-75
2020/12/17 02:23:24;;;;;;;14.43;7.63;;;3.70;99.90;;;;;;6256830;28;20049;-75
2020/12/17 02:26:27;;;;;;;7.77;5.50;;;3.60;99.90;;;;;;6261234;28;20045;-75
2020/12/17 02:29:28;;;;;;;11.13;6.22;;;3.50;99.90;;;;;;6260015;28;20418;-75
2020/12/17 02:32:29;;;;;;;10.07;8.20;;;3.40;99.90;;;;;;6259500;28;20056;-75
2020/12/17 02:35:30;;;;;;;10.30;8.38;;;3.50;99.90;;;;;;6260466;28;20056;-75
2020/12/17 02:38:32;;;;;;;11.60;7.93;;;3.50;99.90;;;;;;6258684;28;20052;-75
2020/12/17 02:41:34;;;;;;;9.00;6.68;;;3.60;99.90;;;;;;6261787;28;20046;-75
2020/12/17 02:44:36;;;;;;;8.80;7.17;;;3.50;99.90;;;;;;6259601;28;20049;-75
2020/12/17 02:47:37;;;;;;;9.10;6.38;;;3.50;99.90;;;;;;6258343;28;20120;-75
2020/12/17 02:50:40;;;;;;;8.35;6.80;;;3.40;99.90;;;;;;6260565;28;20137;-75
2020/12/17 02:53:41;;;;;;;9.35;7.32;;;3.40;99.90;;;;;;6259960;28;20059;-75
2020/12/17 02:56:43;;;;;;;7.73;6.50;;;3.30;99.90;;;;;;6259943;28;20099;-74
2020/12/17 02:59:44;;;;;;;9.75;7.47;;;3.20;99.90;;;;;;6261305;28;20045;-75
2020/12/17 03:02:46;;;;;;;10.43;7.57;;;3.10;99.90;;;;;;6259578;28;20042;-75
2020/12/17 03:05:47;;;;;;;14.87;8.00;;;3.00;99.90;;;;;;6258695;28;20053;-75
2020/12/17 03:08:48;;;;;;;9.00;6.77;;;3.00;99.90;;;;;;6261087;28;20048;-76
2020/12/17 03:11:50;;;;;;;9.23;6.90;;;3.00;99.90;;;;;;6260251;28;20042;-76
2020/12/17 03:14:52;;;;;;;10.07;6.50;;;3.00;99.90;;;;;;6257769;28;20124;-75
2020/12/17 03:17:53;;;;;;;7.57;6.77;;;3.10;99.90;;;;;;6259420;28;20057;-75
2020/12/17 03:20:54;;;;;;;10.07;7.10;;;3.10;99.90;;;;;;6259068;28;20057;-75
2020/12/17 03:23:56;;;;;;;10.50;6.70;;;3.20;99.90;;;;;;6259841;28;20098;-75
2020/12/17 03:26:58;;;;;;;7.73;6.33;;;3.20;99.90;;;;;;6257644;28;20111;-75
2020/12/17 03:29:59;;;;;;;8.43;6.63;;;3.30;99.90;;;;;;6258136;28;20049;-75
2020/12/17 03:33:01;;;;;;;9.23;7.53;;;3.30;99.90;;;;;;6260034;28;20498;-75
2020/12/17 03:36:03;;;;;;;8.30;7.23;;;3.30;99.90;;;;;;6257276;28;20041;-75
2020/12/17 03:39:04;;;;;;;8.40;7.50;;;3.30;99.90;;;;;;6258913;28;20045;-76
2020/12/17 03:42:07;;;;;;;9.15;6.70;;;3.20;99.90;;;;;;6258985;28;20415;-75
2020/12/17 03:45:08;;;;;;;7.53;6.43;;;3.20;99.90;;;;;;6258173;28;20049;-75
2020/12/17 03:48:09;;;;;;;11.33;6.97;;;3.20;99.90;;;;;;6258804;28;20047;-75
2020/12/17 03:51:11;;;;;;;9.53;7.00;;;3.20;99.90;;;;;;6257530;28;20050;-75
2020/12/17 03:54:12;;;;;;;7.17;6.07;;;3.10;99.90;;;;;;6260353;28;20044;-75
2020/12/17 03:57:14;;;;;;;8.17;6.27;;;3.10;99.90;;;;;;6259967;28;20414;-75
2020/12/17 04:00:15;;;;;;;7.95;7.13;;;3.00;99.90;;;;;;6257058;28;20124;-75
2020/12/17 04:03:17;;;;;;;7.63;6.00;;;3.00;99.90;;;;;;6256865;28;20059;-76
2020/12/17 04:06:18;;;;;;;8.40;6.77;;;3.00;99.90;;;;;;6258584;28;20080;-75
2020/12/17 04:09:19;;;;;;;10.57;7.27;;;3.00;99.90;;;;;;6257868;28;20140;-75
2020/12/17 04:12:22;;;;;;;7.63;5.27;;;3.00;99.90;;;;;;6258731;28;20041;-75
2020/12/17 04:15:23;;;;;;;8.90;6.20;;;3.00;99.90;;;;;;6257795;28;20099;-75
2020/12/17 04:18:24;;;;;;;10.83;5.93;;;2.90;99.90;;;;;;6257538;28;20416;-75
2020/12/17 04:21:26;;;;;;;9.33;7.07;;;2.90;99.90;;;;;;6257085;28;20055;-75
2020/12/17 04:24:28;;;;;;;9.83;7.83;;;2.90;99.90;;;;;;6257689;28;20404;-75
2020/12/17 04:27:30;;;;;;;8.00;5.53;;;2.90;99.90;;;;;;6256336;28;20418;-75
2020/12/17 04:30:32;;;;;;;9.73;7.03;;;2.80;99.90;;;;;;6258126;28;20049;-75
2020/12/17 04:33:34;;;;;;;8.70;5.90;;;2.80;99.90;;;;;;6256005;28;20079;-75
2020/12/17 04:36:35;;;;;;;8.80;7.33;;;2.80;99.90;;;;;;6255667;28;20103;-75
2020/12/17 04:39:36;;;;;;;8.63;6.87;;;2.80;99.90;;;;;;6258391;28;20045;-75
2020/12/17 04:42:39;;;;;;;7.93;6.60;;;2.80;99.90;;;;;;6256171;28;20065;-75
2020/12/17 04:45:40;;;;;;;7.60;6.57;;;2.70;99.90;;;;;;6256596;28;20120;-75
2020/12/17 04:48:42;;;;;;;8.03;7.10;;;2.70;99.90;;;;;;6258422;28;20057;-76
2020/12/17 04:51:47;;;;;;;8.47;7.10;;;2.60;99.90;;;;;;6256742;28;20491;-75
2020/12/17 04:54:48;;;;;;;11.60;6.63;;;2.70;99.90;;;;;;6256887;28;20048;-75
2020/12/17 04:57:52;;;;;;;7.73;6.30;;;2.60;99.90;;;;;;6256767;28;20045;-75
2020/12/17 05:00:55;;;;;;;10.47;7.90;;;2.50;99.90;;;;;;6259054;28;20128;-75
2020/12/17 05:03:57;;;;;;;7.23;6.47;;;2.50;99.90;;;;;;6255566;28;20099;-75
2020/12/17 05:06:59;;;;;;;8.67;6.63;;;2.50;99.90;;;;;;6256994;28;20055;-75
2020/12/17 05:10:00;;;;;;;7.83;6.53;;;2.60;99.90;;;;;;6255620;28;20052;-74
2020/12/17 05:13:02;;;;;;;10.03;6.33;;;2.60;99.90;;;;;;6259015;28;20123;-74
2020/12/17 05:16:04;;;;;;;11.00;7.50;;;2.60;99.90;;;;;;6257523;28;20052;-74
2020/12/17 05:19:05;;;;;;;8.67;6.57;;;2.60;99.90;;;;;;6258269;28;20094;-75
2020/12/17 05:22:06;;;;;;;8.43;7.07;;;2.70;99.90;;;;;;6256896;28;20037;-75
2020/12/17 05:25:09;;;;;;;8.23;7.13;;;2.70;99.90;;;;;;6256397;28;20060;-74
2020/12/17 05:28:14;;;;;;;7.97;6.57;;;2.70;99.90;;;;;;6257256;28;20092;-75
2020/12/17 05:31:20;;;;;;;9.33;7.60;;;2.70;99.90;;;;;;6255043;28;20061;-75
2020/12/17 05:34:22;;;;;;;9.93;7.30;;;2.70;99.90;;;;;;6256789;28;20107;-75
2020/12/17 05:37:23;;;;;;;7.70;6.80;;;2.60;99.90;;;;;;6255667;28;20136;-76
2020/12/17 05:40:25;;;;;;;9.43;7.80;;;2.60;99.90;;;;;;6255359;28;20046;-75
2020/12/17 05:43:30;;;;;;;8.17;6.73;;;2.60;99.90;;;;;;6258937;28;20102;-75
2020/12/17 05:46:35;;;;;;;8.77;6.50;;;2.60;99.90;;;;;;6257414;28;20049;-75
2020/12/17 05:49:36;;;;;;;7.50;6.80;;;2.60;99.90;;;;;;6252333;28;20041;-74
2020/12/17 05:52:39;;;;;;;12.10;6.70;;;2.70;99.90;;;;;;6258055;28;20567;-75
2020/12/17 05:55:41;;;;;;;13.57;7.27;;;2.80;99.90;;;;;;6256666;28;20525;-75
2020/12/17 05:58:45;;;;;;;7.37;6.63;;;2.80;99.90;;;;;;6259292;28;20053;-74
2020/12/17 06:01:48;;;;;;;11.60;7.37;;;2.90;99.90;;;;;;6261038;28;20045;-75
2020/12/17 06:05:01;;;;;;;13.67;8.53;;;2.90;99.90;;;;;;6261166;28;20457;-74
2020/12/17 06:08:16;;;;;;;8.73;7.00;;;2.90;99.90;;;;;;6259999;28;20060;-74
2020/12/17 06:11:21;;;;;;;10.57;8.47;;;3.00;99.90;;;;;;6259384;28;20070;-74
2020/12/17 06:14:23;;;;;;;13.13;7.40;;;3.00;99.90;;;;;;6259309;28;20434;-74
2020/12/17 06:17:27;;;;;;;10.33;7.87;;;3.20;99.90;;;;;;6259853;28;20139;-74
2020/12/17 06:20:30;;;;;;;12.40;9.07;;;3.30;99.90;;;;;;6261543;28;20045;-74
2020/12/17 06:23:33;;;;;;;11.17;7.97;;;3.40;99.90;;;;;;6261225;28;20419;-74
2020/12/17 06:26:40;;;;;;;11.02;8.15;;;3.40;99.90;;;;;;6258785;28;20092;-74
2020/12/17 06:29:49;;;;;;;17.73;9.30;;;3.30;99.90;;;;;;6260066;28;20426;-74
2020/12/17 06:32:54;;;;;;;13.07;9.57;;;3.30;99.90;;;;;;6263107;28;20048;-74
2020/12/17 06:35:59;;;;;;;9.83;6.70;;;3.20;99.90;;;;;;6259555;28;20529;-75
2020/12/17 06:39:04;;;;;;;11.43;7.90;;;3.10;99.90;;;;;;6259595;28;20041;-74
2020/12/17 06:42:33;;;;;;;15.47;8.17;;;3.10;99.90;;;;;;6261014;28;20557;-74
2020/12/17 06:45:36;;;;;;;9.50;8.10;;;3.10;99.90;;;;;;6261391;28;20574;-75
2020/12/17 06:48:38;;;;;;;10.47;9.00;;;3.10;99.90;;;;;;6259170;28;20132;-75
2020/12/17 06:51:41;;;;;;;8.97;7.17;;;3.20;99.90;;;;;;6262247;28;20037;-75
2020/12/17 06:54:43;;;;;;;15.07;8.63;;;3.40;99.90;;;;;;6258213;28;20057;-76
2020/12/17 06:57:45;;;;;;;11.13;7.93;;;3.50;99.90;;;;;;6260688;28;20076;-75
2020/12/17 07:00:48;;;;;;;12.17;8.70;;;3.50;99.90;;;;;;6259948;28;20049;-75
2020/12/17 07:03:50;;;;;;;12.20;6.83;;;3.60;99.90;;;;;;6258269;28;20099;-75
2020/12/17 07:07:08;;;;;;;10.27;8.43;;;3.60;99.90;;;;;;6268084;28;20036;-75
2020/12/17 07:10:24;;;;;;;11.02;7.93;;;3.70;99.90;;;;;;6267597;28;20049;-75
2020/12/17 07:13:38;;;;;;;12.50;8.17;;;3.70;99.90;;;;;;6271896;28;20045;-74
2020/12/17 07:16:50;;;;;;;11.02;8.57;;;3.80;99.90;;;;;;6271298;28;20182;-74
2020/12/17 07:19:52;;;;;;;13.50;9.05;;;3.80;99.90;;;;;;6268919;28;20064;-75
2020/12/17 07:22:53;;;;;;;11.27;8.73;;;3.80;99.90;;;;;;6272446;28;20076;-74
2020/12/17 07:25:54;;;;;;;14.57;9.55;;;3.80;99.90;;;;;;6268698;28;20053;-74
2020/12/17 07:28:56;;;;;;;16.23;10.82;;;3.80;99.90;;;;;;6268842;28;20053;-75
2020/12/17 07:32:39;;;;;;;9.45;8.20;;;3.80;99.90;;;;;;6271362;28;20395;-75
2020/12/17 07:35:43;;;;;;;9.70;8.50;;;3.70;99.90;;;;;;6271155;28;20533;-75
2020/12/17 07:38:45;;;;;;;13.27;8.30;;;3.70;99.90;;;;;;6271118;28;20534;-75
2020/12/17 07:41:46;;;;;;;8.65;6.63;;;3.60;99.90;;;;;;6270906;28;20045;-75
2020/12/17 07:44:47;;;;;;;9.88;7.40;;;3.50;99.90;;;;;;6271378;28;20099;-75
2020/12/17 07:47:49;;;;;;;7.95;6.72;;;3.40;99.90;;;;;;6270197;28;20049;-75
2020/12/17 07:50:51;;;;;;;11.55;7.55;;;3.20;99.90;;;;;;6270584;28;20065;-75
2020/12/17 07:53:54;;;;;;;10.65;6.43;;;3.10;99.90;;;;;;6270435;28;20041;-75
2020/12/17 07:57:00;;;;;;;11.48;8.05;;;3.10;99.90;;;;;;6268027;28;20115;-75
2020/12/17 08:00:02;;;;;;;10.80;8.00;;;3.10;99.90;;;;;;6270132;28;20558;-75
2020/12/17 08:03:04;;;;;;;10.85;6.90;;;3.20;99.90;;;;;;6270289;28;20140;-75
2020/12/17 08:06:08;;;;;;;9.23;7.95;;;3.30;99.90;;;;;;6270488;28;20124;-75
2020/12/17 08:09:09;;;;;;;10.67;7.70;;;3.40;99.90;;;;;;6271120;28;20057;-75
2020/12/17 08:12:11;;;;;;;10.10;8.27;;;3.50;99.90;;;;;;6270646;28;20044;-75
2020/12/17 08:15:13;;;;;;;11.93;8.35;;;3.50;99.90;;;;;;6270196;28;20403;-75
2020/12/17 08:18:14;;;;;;;10.00;8.88;;;3.60;99.90;;;;;;6269493;28;20515;-75
2020/12/17 08:21:17;;;;;;;8.95;7.07;;;3.70;99.90;;;;;;6265488;28;20075;-75
2020/12/17 08:24:19;;;;;;;12.07;8.25;;;3.70;99.90;;;;;;6269590;28;20100;-75
2020/12/17 08:27:21;;;;;;;11.23;8.30;;;3.70;99.90;;;;;;6269345;28;20045;-75
2020/12/17 08:30:23;;;;;;;8.10;6.43;;;3.70;99.90;;;;;;6269493;28;20563;-75
2020/12/17 08:33:24;;;;;;;8.90;7.55;;;3.80;99.90;;;;;;6269922;28;20103;-75
2020/12/17 08:36:28;;;;;;;11.15;6.60;;;4.00;99.90;;;;;;6269106;28;20045;-75
2020/12/17 08:39:29;;;;;;;13.50;8.52;;;4.10;99.90;;;;;;6269310;28;20049;-75
2020/12/17 08:42:34;;;;;;;12.38;9.13;;;4.30;99.90;;;;;;6269062;28;20053;-75
2020/12/17 08:45:39;;;;;;;12.47;9.87;;;4.40;99.90;;;;;;6268737;28;20503;-75
2020/12/17 08:48:41;;;;;;;10.60;8.60;;;4.50;99.90;;;;;;6269835;28;20131;-75
2020/12/17 08:51:46;;;;;;;10.63;7.57;;;4.60;99.90;;;;;;6269534;28;20044;-76
2020/12/17 08:54:48;;;;;;;10.70;7.55;;;4.80;99.90;;;;;;6270008;28;20045;-75
2020/12/17 08:57:49;;;;;;;11.55;8.90;;;4.80;99.90;;;;;;6268484;28;20053;-75
2020/12/17 09:00:50;;;;;;;12.52;8.10;;;5.00;99.90;;;;;;6270289;28;20053;-75
2020/12/17 09:03:52;;;;;;;12.93;11.00;;;5.10;99.90;;;;;;6269632;28;20048;-75
2020/12/17 09:06:56;;;;;;;14.95;10.80;;;5.20;99.90;;;;;;6266894;28;20051;-75
2020/12/17 09:10:11;;;;;;;9.60;8.48;;;5.30;99.90;;;;;;6266696;28;20040;-75
2020/12/17 09:13:19;;;;;;;11.68;8.93;;;5.40;99.90;;;;;;6269292;28;20049;-76
2020/12/17 09:16:21;;;;;;;12.02;9.23;;;5.50;99.90;;;;;;6268304;28;20045;-75
2020/12/17 09:19:32;;;;;;;15.27;11.90;;;5.60;99.90;;;;;;6268941;28;20049;-75
2020/12/17 09:22:35;;;;;;;17.95;12.73;;;5.60;99.90;;;;;;6270294;28;20044;-75
2020/12/17 09:25:37;;;;;;;20.83;11.02;;;5.70;99.90;;;;;;6266347;28;20059;-75
2020/12/17 09:28:47;;;;;;;19.58;13.07;;;5.80;99.90;;;;;;6268550;28;20509;-75
2020/12/17 09:31:48;;;;;;;23.27;13.35;;;5.90;99.90;;;;;;6268779;28;20384;-75
2020/12/17 09:34:49;;;;;;;19.45;14.35;;;6.00;99.90;;;;;;6268553;28;20037;-75
2020/12/17 09:37:59;;;;;;;19.27;13.85;;;6.10;99.90;;;;;;6268659;28;20128;-75
2020/12/17 09:41:01;;;;;;;22.65;15.23;;;6.10;99.90;;;;;;6267410;28;20050;-76
2020/12/17 09:44:03;;;;;;;28.35;17.65;;;6.20;99.90;;;;;;6269394;28;20132;-75
2020/12/17 09:47:04;;;;;;;23.35;16.02;;;6.20;99.90;;;;;;6265558;28;20650;-76
2020/12/17 09:50:10;;;;;;;27.00;17.45;;;6.30;99.90;;;;;;6268484;28;20048;-76
2020/12/17 09:53:14;;;;;;;29.25;16.52;;;6.40;99.90;;;;;;6268664;28;20407;-75
2020/12/17 09:56:16;;;;;;;18.63;13.93;;;6.50;99.90;;;;;;6268046;28;20037;-75
2020/12/17 09:59:17;;;;;;;21.85;16.20;;;6.50;99.90;;;;;;6268645;28;20052;-76
2020/12/17 10:02:19;;;;;;;20.70;14.40;;;6.60;99.90;;;;;;6268453;28;20056;-76
2020/12/17 10:05:20;;;;;;;22.98;14.27;;;6.70;99.90;;;;;;6268477;28;20140;-76
2020/12/17 10:08:22;;;;;;;15.90;12.48;;;6.80;99.90;;;;;;6267960;28;20053;-76
2020/12/17 10:11:23;;;;;;;19.73;14.90;;;6.80;99.90;;;;;;6268158;28;20518;-76
2020/12/17 10:14:27;;;;;;;19.75;14.15;;;6.80;99.90;;;;;;6267788;28;20114;-75
2020/12/17 10:17:28;;;;;;;24.73;16.35;;;6.80;99.90;;;;;;6268104;28;20151;-75
2020/12/17 10:20:30;;;;;;;25.40;16.15;;;6.90;99.90;;;;;;6268494;28;20486;-76
2020/12/17 10:23:32;;;;;;;20.80;16.65;;;7.00;99.90;;;;;;6268263;28;20049;-75
2020/12/17 10:26:34;;;;;;;26.17;16.63;;;7.20;99.90;;;;;;6267632;28;20072;-76
2020/12/17 10:29:35;;;;;;;22.58;15.70;;;7.30;99.70;;;;;;6265472;28;20060;-76
2020/12/17 10:32:38;;;;;;;26.58;15.60;;;7.40;99.70;;;;;;6266371;28;20045;-76
2020/12/17 10:35:40;;;;;;;25.63;17.05;;;7.50;99.60;;;;;;6268003;28;20536;-76
2020/12/17 10:38:42;;;;;;;20.95;16.42;;;7.60;99.60;;;;;;6267235;28;20076;-76
2020/12/17 10:41:43;;;;;;;23.67;15.93;;;7.60;99.40;;;;;;6267409;28;20094;-75
2020/12/17 10:44:45;;;;;;;21.75;15.50;;;7.60;99.30;;;;;;6269848;28;20059;-75
2020/12/17 10:47:46;;;;;;;22.55;13.48;;;7.60;99.20;;;;;;6271631;28;20052;-75
2020/12/17 10:50:48;;;;;;;20.52;15.93;;;7.60;99.20;;;;;;6272191;28;20049;-75
2020/12/17 10:53:50;;;;;;;22.55;15.95;;;7.70;99.20;;;;;;6273158;28;20619;-75
2020/12/17 10:56:52;;;;;;;20.65;13.77;;;7.70;99.20;;;;;;6272490;28;20053;-75
2020/12/17 10:59:53;;;;;;;22.10;15.50;;;7.80;99.20;;;;;;6273705;28;20041;-75
2020/12/17 11:02:54;;;;;;;20.20;15.48;;;7.80;99.30;;;;;;6273830;28;20053;-75
2020/12/17 11:05:56;;;;;;;24.20;14.25;;;7.90;99.10;;;;;;6273657;28;20545;-75
2020/12/17 11:08:58;;;;;;;19.80;14.82;;;8.00;99.20;;;;;;6274379;28;20049;-75
2020/12/17 11:12:00;;;;;;;25.35;15.15;;;8.00;98.70;;;;;;6274187;28;20065;-75
2020/12/17 11:15:01;;;;;;;24.15;15.60;;;8.00;98.60;;;;;;6274109;28;20069;-75
2020/12/17 11:18:03;;;;;;;25.08;15.35;;;8.00;98.50;;;;;;6273760;28;20045;-75
2020/12/17 11:21:04;;;;;;;21.52;15.63;;;8.00;98.70;;;;;;6274309;28;20061;-75
2020/12/17 11:24:06;;;;;;;20.55;13.73;;;8.00;98.90;;;;;;6273716;28;20131;-75
2020/12/17 11:27:08;;;;;;;19.27;13.27;;;8.00;99.10;;;;;;6273243;28;20072;-75
2020/12/17 11:30:09;;;;;;;17.65;13.05;;;8.10;99.30;;;;;;6274199;28;20052;-75
2020/12/17 11:33:10;;;;;;;20.23;12.52;;;8.10;99.20;;;;;;6273811;28;20132;-75
2020/12/17 11:36:12;;;;;;;20.38;13.10;;;8.20;99.20;;;;;;6273785;28;20041;-75
2020/12/17 11:39:14;;;;;;;21.38;12.50;;;8.30;99.10;;;;;;6274053;28;20071;-75
2020/12/17 11:42:15;;;;;;;14.63;12.27;;;8.30;98.90;;;;;;6273896;28;20120;-75
2020/12/17 11:45:17;;;;;;;15.38;10.75;;;8.40;98.70;;;;;;6274164;28;20098;-75
2020/12/17 11:48:18;;;;;;;15.05;10.93;;;8.50;98.80;;;;;;6273403;28;20128;-75
2020/12/17 11:51:20;;;;;;;14.88;10.93;;;8.50;98.70;;;;;;6272908;28;20045;-75
2020/12/17 11:54:22;;;;;;;19.27;11.57;;;8.60;98.60;;;;;;6272530;28;20052;-75
2020/12/17 11:57:23;;;;;;;13.98;9.93;;;8.80;98.70;;;;;;6272816;28;20090;-75
2020/12/17 12:00:24;;;;;;;13.35;11.15;;;8.90;98.60;;;;;;6272422;28;20049;-75
2020/12/17 12:03:26;;;;;;;13.55;10.60;;;9.00;98.40;;;;;;6272745;28;20044;-75
2020/12/17 12:06:27;;;;;;;10.82;9.32;;;;;;;;;;6272332;28;20144;-75
2020/12/17 12:09:31;;;;;;;13.52;9.60;;;9.20;98.00;;;;;;6272532;28;20313;-75
2020/12/17 12:12:32;;;;;;;12.57;9.70;;;9.30;98.10;;;;;;6269673;28;20492;-77
2020/12/17 12:15:34;;;;;;;13.68;10.15;;;9.30;98.10;;;;;;6247132;28;20046;-74
2020/12/17 12:18:35;;;;;;;10.68;8.80;;;9.40;97.90;;;;;;6247433;28;20056;-76
2020/12/17 12:21:36;;;;;;;11.75;8.23;;;9.40;98.10;;;;;;6247594;28;20072;-75
2020/12/17 12:24:38;;;;;;;20.65;10.60;;;9.50;98.00;;;;;;6247558;28;20507;-75
2020/12/17 12:27:40;;;;;;;14.70;9.18;;;9.50;98.10;;;;;;6246479;28;20128;-75
2020/12/17 12:30:41;;;;;;;17.65;9.00;;;9.60;97.70;;;;;;6247457;28;20124;-75
2020/12/17 12:33:43;;;;;;;9.88;7.20;;;9.60;97.50;;;;;;6246396;28;20128;-75
2020/12/17 12:36:48;;;;;;;10.65;8.00;;;9.70;97.40;;;;;;6247489;28;20049;-73
2020/12/17 12:39:50;;;;;;;11.25;7.25;;;9.80;97.30;;;;;;6246809;28;20049;-76
2020/12/17 12:42:51;;;;;;;12.77;8.85;;;9.80;97.30;;;;;;6247378;28;20128;-75
2020/12/17 12:45:53;;;;;;;25.17;21.02;;;9.90;97.30;;;;;;6247201;28;20503;-76
2020/12/17 12:48:54;;;;;;;27.73;17.73;;;9.90;97.40;;;;;;6246446;28;20777;-75
2020/12/17 12:51:56;;;;;;;85.53;62.63;;;9.90;97.50;;;;;;6246244;28;20520;-75
2020/12/17 12:54:58;;;;;;;44.35;33.60;;;10.00;97.60;;;;;;6246089;28;20609;-75
2020/12/17 12:57:59;;;;;;;26.10;21.10;;;10.00;97.30;;;;;;6246308;28;20051;-75
2020/12/17 13:01:00;;;;;;;90.95;77.32;;;10.00;97.00;;;;;;6247829;28;20085;-74
2020/12/17 13:04:02;;;;;;;50.80;43.60;;;10.10;97.20;;;;;;6246112;28;20515;-75
2020/12/17 13:07:03;;;;;;;44.72;39.58;;;10.10;97.10;;;;;;6244823;28;20199;-76
2020/12/17 13:10:05;;;;;;;92.85;67.18;;;10.20;96.90;;;;;;6246903;28;20056;-76
2020/12/17 13:13:08;;;;;;;38.97;31.25;;;10.20;96.50;;;;;;6253478;28;20045;-75
2020/12/17 13:16:09;;;;;;;28.90;25.75;;;10.20;96.20;;;;;;6271041;28;20582;-74
2020/12/17 13:19:10;;;;;;;19.85;17.75;;;10.20;96.50;;;;;;6270868;28;20053;-76
2020/12/17 13:22:13;;;;;;;14.75;13.25;;;10.20;96.20;;;;;;6271085;28;20051;-75
2020/12/17 13:25:19;;;;;;;13.05;10.20;;;10.20;96.00;;;;;;6271372;28;20055;-76
2020/12/17 13:28:20;;;;;;;19.58;11.82;;;10.20;96.00;;;;;;6269356;28;20083;-76
2020/12/17 13:31:22;;;;;;;15.63;10.65;;;10.20;95.90;;;;;;6270200;28;20136;-75
2020/12/17 13:34:23;;;;;;;11.95;9.55;;;10.10;96.00;;;;;;6270538;28;20495;-74
2020/12/17 13:37:25;;;;;;;11.35;9.18;;;10.10;96.10;;;;;;6270982;28;20081;-75
2020/12/17 13:40:27;;;;;;;12.85;9.35;;;10.10;96.00;;;;;;6270160;28;20470;-75
2020/12/17 13:43:28;;;;;;;14.30;9.82;;;10.10;95.80;;;;;;6270517;28;20115;-75
2020/12/17 13:46:29;;;;;;;12.05;9.15;;;10.20;95.70;;;;;;6269506;28;20518;-75
2020/12/17 13:49:31;;;;;;;11.25;8.50;;;10.20;95.50;;;;;;6269958;28;20183;-75
2020/12/17 13:52:32;;;;;;;14.15;9.98;;;10.20;95.10;;;;;;6271196;28;20047;-74
2020/12/17 13:55:34;;;;;;;11.52;8.32;;;10.20;95.40;;;;;;6270215;28;20049;-75
2020/12/17 13:58:35;;;;;;;14.93;10.75;;;10.20;95.30;;;;;;6268244;28;20044;-75
2020/12/17 14:01:37;;;;;;;20.23;9.20;;;10.10;95.50;;;;;;6269704;28;20446;-75
2020/12/17 14:04:38;;;;;;;11.45;9.10;;;10.20;95.60;;;;;;6270363;28;20095;-74
2020/12/17 14:07:39;;;;;;;10.85;8.35;;;10.20;94.90;;;;;;6269742;28;20045;-74
2020/12/17 14:10:43;;;;;;;12.05;9.75;;;10.20;94.80;;;;;;6270115;28;20481;-74
2020/12/17 14:13:46;;;;;;;10.38;8.63;;;10.10;94.60;;;;;;6257177;28;20050;-74
2020/12/17 14:16:47;;;;;;;15.73;10.57;;;10.10;94.50;;;;;;6245886;28;20050;-75
2020/12/17 14:19:48;;;;;;;14.38;9.52;;;10.00;94.70;;;;;;6247894;28;20054;-75
2020/12/17 14:22:50;;;;;;;15.52;11.38;;;10.00;94.80;;;;;;6250036;28;20079;-76
2020/12/17 14:25:52;;;;;;;14.77;12.73;;;9.90;95.10;;;;;;6249566;28;20513;-74
2020/12/17 14:28:53;;;;;;;14.07;12.65;;;9.90;95.00;;;;;;6248904;28;20049;-75
2020/12/17 14:31:55;;;;;;;13.63;12.18;;;9.80;95.20;;;;;;6249144;28;20136;-75
2020/12/17 14:34:56;;;;;;;13.70;12.30;;;9.70;95.50;;;;;;6249752;28;20080;-75
2020/12/17 14:37:57;;;;;;;14.90;11.85;;;9.70;95.50;;;;;;6248794;28;20046;-77
2020/12/17 14:41:00;;;;;;;14.50;10.60;;;9.70;95.50;;;;;;6249534;28;20049;-74
2020/12/17 14:44:01;;;;;;;14.98;10.10;;;9.70;95.50;;;;;;6249147;28;20137;-75
2020/12/17 14:47:02;;;;;;;16.65;11.40;;;9.60;95.70;;;;;;6246037;28;20080;-75
2020/12/17 14:50:04;;;;;;;12.52;9.48;;;9.50;95.50;;;;;;6270012;28;20047;-76
2020/12/17 14:53:05;;;;;;;13.75;10.20;;;9.50;95.80;;;;;;6272179;28;20049;-74
2020/12/17 14:56:07;;;;;;;10.95;9.75;;;9.40;95.90;;;;;;6271646;28;20128;-75
2020/12/17 14:59:09;;;;;;;16.73;13.02;;;9.30;96.00;;;;;;6271408;28;20045;-75
2020/12/17 15:02:10;;;;;;;16.23;13.57;;;9.30;96.30;;;;;;6273416;28;20076;-75
2020/12/17 15:05:11;;;;;;;13.10;9.93;;;9.20;96.40;;;;;;6273599;28;20491;-74
2020/12/17 15:08:13;;;;;;;15.70;9.65;;;9.10;96.40;;;;;;6270730;28;20068;-74
2020/12/17 15:11:19;;;;;;;12.30;8.98;;;9.10;96.50;;;;;;6272345;28;20445;-74
2020/12/17 15:14:20;;;;;;;11.73;9.63;;;9.00;96.50;;;;;;6270790;28;20053;-74
2020/12/17 15:17:22;;;;;;;11.85;9.43;;;9.00;96.60;;;;;;6272664;28;20048;-75
2020/12/17 15:20:23;;;;;;;12.68;9.63;;;8.90;96.70;;;;;;6270870;28;20069;-75
2020/12/17 15:23:24;;;;;;;11.25;10.00;;;8.80;96.90;;;;;;6271145;28;20072;-75
2020/12/17 15:26:26;;;;;;;13.55;9.98;;;8.70;97.10;;;;;;6269826;28;20071;-75
2020/12/17 15:29:28;;;;;;;13.35;10.68;;;8.70;97.10;;;;;;6272094;28;20059;-75
2020/12/17 15:32:29;;;;;;;16.45;12.50;;;8.70;97.20;;;;;;6271042;28;20049;-75
2020/12/17 15:35:30;;;;;;;12.27;10.27;;;8.70;97.30;;;;;;6270447;28;20061;-75
2020/12/17 15:38:32;;;;;;;15.00;11.35;;;8.70;97.40;;;;;;6270079;28;20053;-75
2020/12/17 15:41:34;;;;;;;13.95;9.75;;;8.70;97.50;;;;;;6270573;28;20077;-75
2020/12/17 15:44:36;;;;;;;13.05;11.32;;;8.80;97.60;;;;;;6268651;28;20507;-75
2020/12/17 15:47:37;;;;;;;14.85;10.32;;;8.80;97.40;;;;;;6270600;28;20102;-75